Time;durP1;ratioP1;P1;durP2;ratioP2;P2;SDS_P1;SDS_P2;PMS_P1;PMS_P2;Temp;Humidity;BMP_temperature;BMP_pressure;BME280_temperature;BME280_humidity;BME280_pressure;Samples;Min_cycle;Max_cycle;Signal;HPM_P1;HPM_P2
2022/04/21 00:00:04;;;;;;;7.77;4.70;;;;;;;11.08;52.73;99699.22;5005654;28;20018;-82
2022/04/21 00:02:30;;;;;;;10.25;3.28;;;;;;;11.11;52.96;99692.38;5006048;28;20263;-82
2022/04/21 00:04:55;;;;;;;10.77;3.83;;;;;;;11.09;52.69;99690.75;5006625;28;20033;-83
2022/04/21 00:07:22;;;;;;;7.63;3.58;;;;;;;10.95;53.08;99690.47;5004736;28;20040;-82
2022/04/21 00:09:47;;;;;;;7.28;3.38;;;;;;;10.67;54.29;99686.28;5005775;28;20030;-82
2022/04/21 00:12:12;;;;;;;8.65;3.75;;;;;;;10.37;55.40;99681.22;5005304;28;20025;-83
2022/04/21 00:14:38;;;;;;;11.20;4.67;;;;;;;10.26;56.05;99680.38;5006512;28;20376;-83
2022/04/21 00:17:03;;;;;;;9.45;3.70;;;;;;;10.21;55.90;99679.53;5006198;28;20259;-82
2022/04/21 00:19:29;;;;;;;7.93;4.68;;;;;;;10.34;55.45;99665.41;5005544;28;20018;-83
2022/04/21 00:24:38;;;;;;;6.63;4.50;;;;;;;10.32;55.55;99667.59;5007672;28;20079;-83
2022/04/21 00:27:03;;;;;;;15.75;4.38;;;;;;;10.18;55.90;99660.97;5009503;28;20022;-83
2022/04/21 00:29:28;;;;;;;7.50;4.47;;;;;;;10.10;56.66;99671.31;5007911;28;20030;-82
2022/04/21 00:31:54;;;;;;;6.50;4.07;;;;;;;9.88;57.04;99666.00;5007623;28;20038;-82
2022/04/21 00:34:19;;;;;;;8.77;4.63;;;;;;;9.92;57.17;99670.66;5006939;28;20022;-83
2022/04/21 00:36:45;;;;;;;7.00;4.22;;;;;;;9.99;56.62;99658.69;4990925;28;20278;-83
2022/04/21 00:39:11;;;;;;;7.68;4.57;;;;;;;10.14;56.25;99661.53;5009629;28;20575;-83
2022/04/21 00:41:36;;;;;;;11.05;3.97;;;;;;;9.99;56.97;99666.84;5016916;28;20026;-84
2022/04/21 00:44:02;;;;;;;8.30;5.03;;;;;;;9.93;56.99;99661.41;5025465;28;20249;-83
2022/04/21 00:46:28;;;;;;;8.13;4.65;;;;;;;9.93;56.97;99655.13;5024046;28;20025;-83
2022/04/21 00:48:54;;;;;;;9.60;4.47;;;;;;;9.69;57.23;99650.06;5024923;28;20053;-83
2022/04/21 00:51:20;;;;;;;7.82;5.00;;;;;;;9.55;58.23;99655.16;5023659;28;20571;-83
2022/04/21 00:53:45;;;;;;;7.97;4.40;;;;;;;9.71;57.93;99658.78;5006479;28;20057;-83
2022/04/21 00:56:12;;;;;;;11.45;5.28;;;;;;;9.69;57.92;99656.34;5025096;28;20469;-83
2022/04/21 00:58:38;;;;;;;7.45;4.72;;;;;;;9.53;58.50;99652.69;5022981;28;20021;-83
2022/04/21 01:02:46;;;;;;;7.95;4.25;;;;;;;9.63;58.33;99651.94;5015828;28;20026;-82
2022/04/21 01:03:49;;;;;;;10.35;5.43;;;;;;;9.62;57.86;99650.28;4984669;28;20100;-83
2022/04/21 01:06:15;;;;;;;8.23;4.47;;;;;;;9.83;57.27;99650.44;4985243;28;20477;-83
2022/04/21 01:08:40;;;;;;;9.93;4.97;;;;;;;9.86;57.79;99641.75;4985679;28;20766;-83
2022/04/21 01:11:05;;;;;;;10.67;5.67;;;;;;;9.93;56.80;99649.66;5001500;28;20527;-84
2022/04/21 01:16:33;;;;;;;6.32;3.75;;;;;;;9.82;57.73;99651.53;5022361;28;20056;-84
2022/04/21 01:18:59;;;;;;;7.97;4.63;;;;;;;9.64;58.59;99648.13;5024571;28;20033;-83
2022/04/21 01:21:24;;;;;;;11.73;5.70;;;;;;;9.74;57.93;99649.28;5012431;28;20140;-84
2022/04/21 01:23:50;;;;;;;11.77;4.33;;;;;;;9.71;58.24;99647.06;5004189;28;20030;-82
2022/04/21 01:26:17;;;;;;;9.27;5.28;;;;;;;9.60;58.26;99644.28;4987334;28;20622;-83
2022/04/21 01:28:45;;;;;;;9.60;4.93;;;;;;;9.38;59.00;99644.38;5004079;28;20025;-83
2022/04/21 01:31:10;;;;;;;7.18;4.13;;;;;;;9.33;59.22;99637.03;4992717;28;20034;-83
2022/04/21 01:33:36;;;;;;;9.90;5.45;;;;;;;9.24;59.72;99636.66;5003372;28;20109;-83
2022/04/21 01:36:01;;;;;;;9.90;5.82;;;;;;;9.25;59.57;99634.78;5004378;28;20048;-83
2022/04/21 01:41:11;;;;;;;10.20;6.45;;;;;;;9.27;60.25;99632.63;5004024;28;20048;-83
2022/04/21 01:43:37;;;;;;;8.80;5.80;;;;;;;9.18;60.13;99632.25;5004324;28;20477;-82
2022/04/21 01:46:03;;;;;;;12.95;5.40;;;;;;;9.08;60.43;99630.28;5002091;28;20034;-83
2022/04/21 01:48:29;;;;;;;8.60;5.10;;;;;;;8.94;61.10;99630.69;5004262;28;20575;-83
2022/04/21 01:50:54;;;;;;;11.40;7.10;;;;;;;8.83;61.58;99635.19;5010359;28;20443;-83
2022/04/21 01:53:20;;;;;;;11.25;5.97;;;;;;;8.93;61.28;99634.47;5023801;28;20049;-84
2022/04/21 01:55:46;;;;;;;12.23;5.77;;;;;;;8.91;60.98;99641.28;5022232;28;20534;-84
2022/04/21 01:58:12;;;;;;;10.25;5.72;;;;;;;9.05;61.60;99633.53;5022120;28;20267;-83
2022/04/21 02:00:38;;;;;;;8.52;5.18;;;;;;;9.07;61.72;99634.09;5018344;28;20032;-83
2022/04/21 02:03:03;;;;;;;9.98;5.45;;;;;;;8.98;62.21;99633.72;5002812;28;20198;-83
2022/04/21 02:05:28;;;;;;;7.80;4.18;;;;;;;8.90;62.00;99618.69;5003839;28;20113;-83
2022/04/21 02:07:54;;;;;;;9.00;4.90;;;;;;;9.06;61.65;99624.25;5003063;28;20057;-84
2022/04/21 02:10:21;;;;;;;9.55;5.53;;;;;;;9.12;61.74;99623.25;5003553;28;20623;-83
2022/04/21 02:12:47;;;;;;;8.77;5.15;;;;;;;8.72;62.61;99623.41;5003206;28;20105;-84
2022/04/21 02:15:13;;;;;;;11.40;6.03;;;;;;;8.53;63.05;99629.16;5003514;28;20102;-83
2022/04/21 02:17:39;;;;;;;12.30;6.10;;;;;;;8.48;63.15;99623.66;5003318;28;20044;-82
2022/04/21 02:20:20;;;;;;;12.98;6.15;;;;;;;8.48;62.73;99623.66;5002490;28;20017;-83
2022/04/21 02:22:46;;;;;;;10.07;5.53;;;;;;;8.59;62.77;99631.94;5004087;28;20045;-83
2022/04/21 02:25:13;;;;;;;8.63;5.13;;;;;;;8.59;62.58;99612.94;5002570;28;20026;-83
2022/04/21 02:27:41;;;;;;;10.80;4.97;;;;;;;8.51;62.66;99627.75;5003872;28;20443;-83
2022/04/21 02:30:09;;;;;;;10.35;6.13;;;;;;;8.56;61.95;99618.84;5002349;28;20539;-84
2022/04/21 02:32:35;;;;;;;11.02;5.53;;;;;;;8.75;61.19;99620.19;5002375;28;20030;-84
2022/04/21 02:35:01;;;;;;;8.68;5.10;;;;;;;8.69;61.36;99618.47;5003410;28;20030;-84
2022/04/21 02:37:26;;;;;;;10.85;6.10;;;;;;;8.53;61.30;99621.00;5001616;28;20161;-84
2022/04/21 02:39:52;;;;;;;11.88;5.78;;;;;;;8.65;61.18;99609.19;5003773;28;20029;-84
2022/04/21 02:42:21;;;;;;;10.90;6.88;;;;;;;8.62;60.90;99607.78;5001818;28;20268;-83
2022/04/21 02:44:47;;;;;;;8.43;5.45;;;;;;;8.57;60.90;99613.19;5003629;28;20033;-83
2022/04/21 02:47:14;;;;;;;13.40;5.28;;;;;;;8.55;61.02;99614.47;5002243;28;20038;-84
2022/04/21 02:49:45;;;;;;;8.82;4.50;;;;;;;8.61;60.96;99610.78;5003244;28;20108;-83
2022/04/21 02:52:11;;;;;;;7.47;4.80;;;;;;;8.48;60.73;99604.63;5020128;28;20029;-84
2022/04/21 02:57:21;;;;;;;10.55;4.63;;;;;;;8.18;61.80;99611.34;5023581;28;20044;-82
2022/04/21 02:59:54;;;;;;;9.35;4.95;;;;;;;8.05;62.39;99620.72;5022015;28;20400;-84
2022/04/21 03:02:20;;;;;;;12.80;4.72;;;;;;;7.88;62.82;99616.13;5003093;28;20038;-82
2022/04/21 03:04:46;;;;;;;7.63;4.57;;;;;;;7.94;62.46;99611.59;5002846;28;20476;-84
2022/04/21 03:07:13;;;;;;;9.43;6.97;;;;;;;7.89;63.03;99616.97;5002579;28;20378;-83
2022/04/21 03:09:39;;;;;;;9.02;5.38;;;;;;;7.99;62.86;99617.09;5003633;28;20022;-83
2022/04/21 03:12:07;;;;;;;14.13;6.35;;;;;;;7.82;63.44;99617.97;5018576;28;20526;-84
2022/04/21 03:14:37;;;;;;;9.70;5.13;;;;;;;7.89;62.49;99614.25;5022727;28;20334;-83
2022/04/21 03:17:07;;;;;;;8.88;4.50;;;;;;;7.79;63.32;99613.00;5021722;28;20057;-83
2022/04/21 03:19:33;;;;;;;12.45;5.07;;;;;;;7.94;62.61;99604.28;5004851;28;20040;-83
2022/04/21 03:24:42;;;;;;;6.97;4.38;;;;;;;7.85;63.21;99607.69;5026615;28;20064;-83
2022/04/21 03:27:08;;;;;;;8.85;4.43;;;;;;;7.73;63.69;99605.88;5025404;28;20026;-83
2022/04/21 03:29:37;;;;;;;10.50;5.13;;;;;;;7.90;63.33;99605.84;5025651;28;20437;-83
2022/04/21 03:32:09;;;;;;;10.77;5.15;;;;;;;7.96;62.97;99598.59;5019449;28;20042;-84
2022/04/21 03:34:36;;;;;;;13.20;6.32;;;;;;;8.05;63.07;99605.22;5006274;28;20034;-83
2022/04/21 03:37:02;;;;;;;11.13;6.25;;;;;;;7.81;63.85;99605.44;5006535;28;20030;-83
2022/04/21 03:39:28;;;;;;;12.65;5.88;;;;;;;7.72;64.38;99606.94;5006253;28;20018;-83
2022/04/21 03:44:56;;;;;;;11.65;5.82;;;;;;;7.89;64.17;99617.75;5005943;28;20503;-84
2022/04/21 03:47:22;;;;;;;18.17;7.57;;;;;;;7.83;64.35;99610.66;5005747;28;20444;-82
2022/04/21 03:49:48;;;;;;;12.98;7.85;;;;;;;7.79;64.55;99614.94;5006608;28;20367;-83
2022/04/21 03:52:14;;;;;;;12.48;7.53;;;;;;;7.71;64.79;99616.16;5023309;28;20060;-84
2022/04/21 03:54:40;;;;;;;10.38;6.05;;;;;;;7.75;64.70;99617.31;5026082;28;20329;-83
2022/04/21 03:57:08;;;;;;;16.40;6.55;;;;;;;7.72;65.05;99620.53;5026174;28;20036;-83
2022/04/21 03:59:35;;;;;;;12.57;6.28;;;;;;;7.59;65.43;99618.97;5024589;28;20116;-83
2022/04/21 04:02:02;;;;;;;14.27;6.65;;;;;;;7.57;65.35;99612.97;5018776;28;20033;-84
2022/04/21 04:04:35;;;;;;;9.30;5.50;;;;;;;7.53;65.92;99618.06;5005402;28;20112;-83
2022/04/21 04:12:33;;;;;;;11.15;6.35;;;;;;;7.49;66.45;99608.78;4986058;28;20037;-83
2022/04/21 04:14:59;;;;;;;10.93;5.82;;;;;;;7.51;66.31;99603.94;4986509;28;20078;-83
2022/04/21 04:17:25;;;;;;;13.43;8.00;;;;;;;7.45;66.61;99602.22;4985514;28;20077;-82
2022/04/21 04:19:50;;;;;;;11.75;7.43;;;;;;;7.39;67.29;99604.03;4986765;28;20446;-83
2022/04/21 04:22:15;;;;;;;12.23;8.57;;;;;;;7.48;66.67;99599.81;5003888;28;20531;-83
2022/04/21 04:24:41;;;;;;;10.13;7.55;;;;;;;7.46;66.50;99604.66;5005677;28;20835;-84
2022/04/21 04:27:06;;;;;;;11.65;6.25;;;;;;;7.40;66.34;99602.16;5004289;28;20107;-83
2022/04/21 04:29:32;;;;;;;12.50;7.75;;;;;;;7.19;66.70;99608.06;5004668;28;20040;-83
2022/04/21 04:31:57;;;;;;;15.70;7.97;;;;;;;7.24;66.60;99607.34;5004479;28;20436;-82
2022/04/21 04:34:23;;;;;;;9.63;6.20;;;;;;;7.21;67.23;99607.81;5005140;28;20264;-84
2022/04/21 04:36:48;;;;;;;17.80;6.75;;;;;;;7.39;66.71;99616.75;5006128;28;20022;-83
2022/04/21 04:39:16;;;;;;;12.32;7.20;;;;;;;7.32;67.02;99615.03;5005468;28;20018;-83
2022/04/21 04:44:25;;;;;;;12.43;7.07;;;;;;;7.38;66.96;99612.41;5025311;28;20048;-83
2022/04/21 04:46:51;;;;;;;12.90;8.57;;;;;;;7.27;66.85;99623.09;5024945;28;20246;-83
2022/04/21 04:49:16;;;;;;;12.77;6.78;;;;;;;7.25;67.10;99617.09;5025763;28;20323;-83
2022/04/21 04:51:42;;;;;;;12.82;7.65;;;;;;;7.31;67.53;99629.69;5023875;28;20376;-83
2022/04/21 04:54:12;;;;;;;12.35;8.68;;;;;;;7.47;67.39;99619.06;5023654;28;20022;-84
2022/04/21 04:56:39;;;;;;;13.80;8.40;;;;;;;7.46;67.24;99620.16;5024594;28;20057;-83
2022/04/21 04:59:04;;;;;;;18.90;10.40;;;;;;;7.32;67.87;99619.66;5024763;28;20030;-83
2022/04/21 05:01:40;;;;;;;22.45;11.23;;;;;;;7.29;68.38;99620.97;5012241;28;20080;-83
2022/04/21 05:04:11;;;;;;;14.80;9.07;;;;;;;7.21;68.60;99619.47;5004754;28;20686;-84
2022/04/21 05:06:47;;;;;;;24.17;8.77;;;;;;;7.39;68.52;99616.75;5005587;28;20409;-83
2022/04/21 05:12:02;;;;;;;23.27;9.82;;;;;;;7.75;66.47;99617.31;5014744;28;20103;-84
2022/04/21 05:14:29;;;;;;;16.90;7.95;;;;;;;7.73;66.66;99629.50;5024329;28;20136;-83
2022/04/21 05:16:54;;;;;;;17.60;8.10;;;;;;;7.76;66.49;99618.97;5022411;28;20087;-83
2022/04/21 05:19:21;;;;;;;13.63;8.63;;;;;;;7.91;66.35;99612.09;5025004;28;20496;-83
2022/04/21 05:21:48;;;;;;;17.85;8.52;;;;;;;7.98;66.50;99614.63;5008905;28;20431;-82
2022/04/21 05:24:14;;;;;;;13.05;8.30;;;;;;;8.04;65.78;99609.00;5004283;28;20227;-84
2022/04/21 05:26:41;;;;;;;21.67;10.27;;;;;;;8.14;65.67;99615.63;5003186;28;20484;-84
2022/04/21 05:31:58;;;;;;;12.85;7.82;;;;;;;8.15;65.71;99606.44;5013540;28;20697;-84
2022/04/21 05:34:24;;;;;;;20.23;8.60;;;;;;;8.22;65.38;99604.34;5002821;28;20030;-83
2022/04/21 05:36:50;;;;;;;19.80;8.68;;;;;;;8.26;64.35;99601.94;5004198;28;20022;-83
2022/04/21 05:39:15;;;;;;;13.15;8.00;;;;;;;8.33;64.27;99597.13;5003050;28;20048;-84
2022/04/21 05:41:43;;;;;;;14.60;8.52;;;;;;;8.45;64.07;99594.28;5005349;28;20034;-83
2022/04/21 05:44:10;;;;;;;15.70;8.60;;;;;;;8.41;64.31;99604.03;5003189;28;20492;-84
2022/04/21 05:46:36;;;;;;;15.23;8.27;;;;;;;8.55;63.56;99596.28;5004479;28;20508;-83
2022/04/21 05:49:01;;;;;;;21.55;7.78;;;;;;;8.64;63.13;99599.41;5004147;28;20260;-82
2022/04/21 05:51:27;;;;;;;17.20;8.38;;;;;;;8.78;62.86;99596.28;5018298;28;20508;-83
2022/04/21 05:53:53;;;;;;;14.02;8.00;;;;;;;8.82;62.59;99600.13;5028139;28;20025;-83
2022/04/21 05:56:18;;;;;;;19.30;8.27;;;;;;;8.61;62.70;99595.31;5026764;28;20084;-82
2022/04/21 05:58:44;;;;;;;14.25;7.75;;;;;;;8.63;62.62;99597.75;5028311;28;20026;-85
2022/04/21 06:01:10;;;;;;;14.27;7.53;;;;;;;8.66;62.58;99602.69;5017937;28;20092;-84
2022/04/21 06:03:41;;;;;;;16.05;7.55;;;;;;;8.78;62.92;99593.56;5006981;28;20037;-83
2022/04/21 06:06:07;;;;;;;13.07;6.63;;;;;;;8.81;62.52;99598.47;5008259;28;20172;-84
2022/04/21 06:08:33;;;;;;;14.13;7.78;;;;;;;8.90;61.87;99580.63;5006268;28;20032;-84
2022/04/21 06:10:58;;;;;;;16.58;7.25;;;;;;;8.86;62.14;99595.81;5007944;28;20029;-83
2022/04/21 06:13:27;;;;;;;11.80;6.78;;;;;;;8.93;61.94;99590.97;5006761;28;20034;-84
2022/04/21 06:15:53;;;;;;;14.80;7.47;;;;;;;9.11;60.84;99588.97;4990464;28;20042;-84
2022/04/21 06:18:20;;;;;;;13.05;5.68;;;;;;;9.07;60.22;99582.41;5006818;28;20030;-84
2022/04/21 06:20:48;;;;;;;9.30;4.93;;;;;;;8.97;60.60;99586.66;5007377;28;20113;-84
2022/04/21 06:23:13;;;;;;;9.82;4.75;;;;;;;8.85;61.17;99584.13;5005909;28;20088;-83
2022/04/21 06:25:39;;;;;;;13.00;6.50;;;;;;;8.96;60.71;99578.78;5003199;28;20033;-83
2022/04/21 06:28:04;;;;;;;9.50;4.60;;;;;;;9.04;60.14;99575.59;4994688;28;20029;-84
2022/04/21 06:30:31;;;;;;;14.80;4.95;;;;;;;9.14;59.82;99572.13;5005456;28;20105;-84
2022/04/21 06:32:56;;;;;;;11.95;4.68;;;;;;;9.18;59.69;99577.84;4990062;28;20484;-87
2022/04/21 06:35:22;;;;;;;14.15;4.68;;;;;;;9.16;59.90;99583.56;5006192;28;20026;-83
2022/04/21 06:37:47;;;;;;;72.00;9.57;;;;;;;9.36;59.10;99575.84;5006958;28;20616;-77
2022/04/21 06:40:13;;;;;;;8.50;4.47;;;;;;;9.33;59.23;99585.31;5003456;28;20471;-78
2022/04/21 06:42:41;;;;;;;9.48;4.88;;;;;;;9.37;59.62;99581.00;5022059;28;20022;-78
2022/04/21 06:48:03;;;;;;;9.70;5.10;;;;;;;9.45;59.48;99585.97;5021299;28;20079;-77
2022/04/21 06:50:30;;;;;;;9.23;4.90;;;;;;;9.56;59.12;99581.38;5020425;28;20056;-78
2022/04/21 06:52:55;;;;;;;7.63;4.10;;;;;;;9.65;58.57;99584.44;5020922;28;20480;-77
2022/04/21 06:55:20;;;;;;;9.63;4.23;;;;;;;9.83;58.04;99584.25;5016331;28;20033;-77
2022/04/21 06:57:46;;;;;;;10.48;4.60;;;;;;;9.94;57.86;99585.97;5002763;28;21091;-78
2022/04/21 07:00:11;;;;;;;12.27;5.30;;;;;;;9.72;58.32;99572.50;5002957;28;20029;-78
2022/04/21 07:02:41;;;;;;;10.43;4.78;;;;;;;9.65;59.64;99578.19;5010234;28;20508;-79
2022/04/21 07:05:10;;;;;;;12.35;5.22;;;;;;;9.86;58.39;99581.03;5001497;28;20037;-78
2022/04/21 07:07:37;;;;;;;9.30;4.78;;;;;;;10.08;58.31;99569.97;5002149;28;20088;-77
2022/04/21 07:10:02;;;;;;;9.77;5.65;;;;;;;10.13;58.26;99575.41;5001299;28;20095;-76
2022/04/21 07:12:31;;;;;;;10.23;4.13;;;;;;;10.11;58.50;99580.31;5021477;28;20029;-77
2022/04/21 07:14:58;;;;;;;9.40;5.32;;;;;;;10.13;58.76;99578.13;5022026;28;20144;-78
2022/04/21 07:17:23;;;;;;;12.02;5.03;;;;;;;10.26;57.44;99578.72;5021797;28;20037;-78
2022/04/21 07:19:49;;;;;;;8.02;4.25;;;;;;;10.23;57.20;99579.28;5018229;28;20542;-80
2022/04/21 07:22:15;;;;;;;8.35;3.90;;;;;;;10.31;56.88;99586.94;5001066;28;20033;-79
2022/04/21 07:24:40;;;;;;;6.30;4.28;;;;;;;10.31;56.94;99589.66;5002641;28;20030;-79
2022/04/21 07:27:05;;;;;;;7.03;3.53;;;;;;;10.42;57.18;99595.13;5002236;28;20029;-79
2022/04/21 07:32:15;;;;;;;10.57;4.68;;;;;;;10.57;57.01;99589.75;5002764;28;20053;-81
2022/04/21 07:34:40;;;;;;;6.90;3.53;;;;;;;10.70;56.00;99585.69;5001761;28;20551;-80
2022/04/21 07:37:09;;;;;;;10.45;4.65;;;;;;;10.72;54.94;99588.13;5002091;28;20040;-79
2022/04/21 07:39:36;;;;;;;10.65;5.10;;;;;;;10.68;54.97;99581.63;5001040;28;20068;-77
2022/04/21 07:42:02;;;;;;;13.48;4.50;;;;;;;10.82;55.13;99582.69;5018421;28;20041;-81
2022/04/21 07:44:30;;;;;;;7.85;3.72;;;;;;;10.95;54.48;99586.00;5021396;28;20475;-79
2022/04/21 07:46:55;;;;;;;9.70;3.95;;;;;;;10.96;54.31;99587.66;5020158;28;20064;-77
2022/04/21 07:54:50;;;;;;;8.15;4.85;;;;;;;11.00;54.03;99574.28;5021394;28;20121;-77
2022/04/21 07:57:15;;;;;;;7.82;3.38;;;;;;;10.93;53.84;99589.00;4999626;28;20120;-79
2022/04/21 07:59:41;;;;;;;9.00;3.72;;;;;;;10.83;53.97;99583.53;5001604;28;20032;-78
2022/04/21 08:02:09;;;;;;;8.38;4.25;;;;;;;11.04;53.86;99587.09;5001232;28;20040;-78
2022/04/21 08:04:37;;;;;;;10.02;5.00;;;;;;;11.05;53.31;99577.81;4990184;28;20030;-79
2022/04/21 08:07:03;;;;;;;7.85;5.03;;;;;;;10.81;54.80;99591.16;4998776;28;20046;-79
2022/04/21 08:09:28;;;;;;;7.72;3.75;;;;;;;10.99;54.54;99578.91;5004512;28;20542;-79
2022/04/21 08:11:53;;;;;;;16.63;3.95;;;;;;;11.23;53.84;99589.25;5003724;28;20485;-79
2022/04/21 08:14:23;;;;;;;8.77;3.90;;;;;;;11.35;52.85;99578.06;5004992;28;20075;-78
2022/04/21 08:16:48;;;;;;;8.52;3.67;;;;;;;11.11;52.25;99589.53;4998407;28;20294;-79
2022/04/21 08:19:13;;;;;;;7.45;3.35;;;;;;;11.28;52.16;99589.28;5005133;28;20421;-80
2022/04/21 08:21:39;;;;;;;7.03;4.38;;;;;;;11.17;52.72;99584.91;5004761;28;20351;-93
2022/04/21 08:38:24;;;;;;;4.47;2.20;;;;;;;11.98;47.86;99578.75;5004041;28;20052;-79
2022/04/21 08:40:57;;;;;;;9.43;3.90;;;;;;;12.15;47.96;99591.28;5005696;28;20036;-78
2022/04/21 08:43:25;;;;;;;5.63;2.78;;;;;;;12.23;47.72;99587.97;5004294;28;20029;-78
2022/04/21 08:45:51;;;;;;;4.55;2.60;;;;;;;12.33;48.31;99578.91;5003786;28;20484;-78
2022/04/21 08:48:26;;;;;;;4.20;2.53;;;;;;;12.39;49.08;99584.38;5003994;28;20026;-80
2022/04/21 08:50:52;;;;;;;6.40;2.78;;;;;;;12.41;48.15;99585.69;5010341;28;20029;-79
2022/04/21 08:53:19;;;;;;;6.47;3.30;;;;;;;12.58;47.80;99579.03;5023937;28;20396;-79
2022/04/21 08:55:47;;;;;;;9.68;2.92;;;;;;;12.70;48.37;99570.50;5024063;28;20022;-79
2022/04/21 08:58:12;;;;;;;6.32;2.35;;;;;;;12.73;48.74;99570.72;5023196;28;20036;-79
2022/04/21 09:00:38;;;;;;;9.02;3.40;;;;;;;12.85;47.84;99569.56;5005383;28;20400;-79
2022/04/21 09:03:06;;;;;;;7.22;2.83;;;;;;;12.92;46.73;99561.03;5003542;28;20022;-78
2022/04/21 09:05:31;;;;;;;5.90;2.58;;;;;;;12.77;46.86;99559.25;5003180;28;20400;-79
2022/04/21 09:07:58;;;;;;;7.45;2.80;;;;;;;12.93;45.85;99562.69;5003805;28;20038;-78
2022/04/21 09:10:25;;;;;;;4.35;2.20;;;;;;;12.98;45.26;99559.88;5006716;28;20164;-79
2022/04/21 09:12:55;;;;;;;3.63;1.85;;;;;;;13.13;45.03;99560.88;5001884;28;20044;-78
2022/04/21 09:15:22;;;;;;;6.95;2.40;;;;;;;13.01;45.45;99563.97;5004498;28;20095;-79
2022/04/21 09:17:49;;;;;;;6.97;2.28;;;;;;;13.11;46.09;99554.88;5002970;28;20030;-78
2022/04/21 09:23:04;;;;;;;5.82;2.90;;;;;;;13.22;45.52;99559.13;5019166;28;20503;-78
2022/04/21 09:25:42;;;;;;;9.57;3.05;;;;;;;13.24;45.56;99553.38;5023317;28;20057;-78
2022/04/21 09:28:33;;;;;;;8.77;3.95;;;;;;;12.93;46.31;99566.22;5023585;28;20041;-78
2022/04/21 09:31:00;;;;;;;10.82;2.95;;;;;;;13.08;46.33;99558.97;5022330;28;20056;-79
2022/04/21 09:33:33;;;;;;;6.15;3.03;;;;;;;13.02;46.95;99551.91;5004527;28;20025;-79
2022/04/21 09:36:00;;;;;;;8.82;3.38;;;;;;;13.13;46.71;99553.47;5003508;28;20054;-78
2022/04/21 09:38:26;;;;;;;6.90;3.63;;;;;;;13.01;46.71;99550.28;5003018;28;20491;-80
2022/04/21 09:40:52;;;;;;;9.15;3.85;;;;;;;12.99;47.97;99549.75;5010085;28;20021;-79
2022/04/21 09:43:31;;;;;;;7.30;3.17;;;;;;;13.23;46.98;99549.00;5022510;28;20365;-78
2022/04/21 09:46:22;;;;;;;7.65;3.53;;;;;;;13.51;46.91;99550.09;5022740;28;20057;-80
2022/04/21 09:48:53;;;;;;;10.30;4.40;;;;;;;13.54;46.38;99546.00;5022591;28;20084;-78
2022/04/21 09:51:28;;;;;;;11.15;3.75;;;;;;;13.41;48.42;99553.75;5004445;28;20048;-79
2022/04/21 09:53:54;;;;;;;7.40;3.55;;;;;;;13.75;46.49;99537.56;5005005;28;20061;-80
2022/04/21 09:56:40;;;;;;;11.48;3.97;;;;;;;13.89;46.12;99533.00;5022382;28;20033;-80
2022/04/21 09:59:10;;;;;;;8.60;4.50;;;;;;;13.24;47.46;99536.97;5021144;28;20037;-80
2022/04/21 10:01:38;;;;;;;9.50;3.53;;;;;;;13.39;47.51;99534.06;5018173;28;20033;-80
2022/04/21 10:04:07;;;;;;;12.23;4.43;;;;;;;13.68;46.38;99526.13;5002889;28;20030;-80
2022/04/21 10:06:35;;;;;;;8.90;3.25;;;;;;;13.83;46.06;99523.19;5002693;28;20080;-80
2022/04/21 10:09:01;;;;;;;28.27;6.15;;;;;;;13.90;46.13;99528.34;5002842;28;20073;-80
2022/04/21 10:11:28;;;;;;;37.78;6.40;;;;;;;14.14;45.36;99529.44;4996343;28;20389;-80
2022/04/21 10:13:54;;;;;;;11.73;4.00;;;;;;;14.07;44.76;99522.38;5022229;28;20033;-81
2022/04/21 10:16:28;;;;;;;12.60;4.15;;;;;;;13.70;45.69;99515.69;5022005;28;20029;-80
2022/04/21 10:18:55;;;;;;;11.65;3.22;;;;;;;13.94;44.83;99518.41;5022042;28;20037;-79
2022/04/21 10:21:27;;;;;;;6.97;3.47;;;;;;;13.94;43.75;99520.34;5010803;28;20524;-80
2022/04/21 10:23:53;;;;;;;12.40;2.50;;;;;;;13.80;42.95;99518.31;5002737;28;20405;-79
2022/04/21 10:26:40;;;;;;;7.47;2.97;;;;;;;13.85;44.52;99514.72;4984516;28;20078;-79
2022/04/21 10:29:14;;;;;;;4.63;2.55;;;;;;;13.75;43.87;99510.19;5002414;28;20038;-81
2022/04/21 10:31:50;;;;;;;;;;;;;;;13.79;44.62;99513.94;4993157;28;20037;-80
2022/04/21 10:34:38;;;;;;;8.75;2.83;;;;;;;14.50;43.08;99512.47;5002102;28;19925;-80
2022/04/21 10:37:15;;;;;;;27.48;6.75;;;;;;;14.79;43.11;99500.47;5002359;28;20237;-80
2022/04/21 10:40:04;;;;;;;14.13;4.32;;;;;;;14.85;42.65;99493.00;4984411;28;20038;-80
2022/04/21 10:42:29;;;;;;;9.90;3.45;;;;;;;15.27;43.50;99493.09;4982950;28;20114;-79
2022/04/21 10:44:55;;;;;;;7.55;3.05;;;;;;;15.48;42.59;99491.88;4982269;28;20508;-80
2022/04/21 10:47:35;;;;;;;8.77;3.67;;;;;;;15.37;42.02;99485.78;4982151;28;20018;-79
2022/04/21 10:50:14;;;;;;;7.50;3.92;;;;;;;15.17;42.12;99483.09;4982481;28;20034;-80
2022/04/21 10:58:34;;;;;;;11.88;3.22;;;;;;;15.94;41.77;99470.06;5021018;28;20441;-81
2022/04/21 11:01:17;;;;;;;8.02;3.42;;;;;;;15.54;41.78;99482.41;5011845;28;20476;-80
2022/04/21 11:03:46;;;;;;;12.23;3.47;;;;;;;15.81;41.44;99474.47;5002063;28;20030;-80
2022/04/21 11:06:13;;;;;;;9.93;3.58;;;;;;;15.76;40.86;99472.66;5001948;28;20026;-79
2022/04/21 11:08:39;;;;;;;8.68;3.55;;;;;;;16.05;40.77;99470.72;5001889;28;20116;-81
2022/04/21 11:11:05;;;;;;;7.45;2.88;;;;;;;16.08;41.10;99473.66;5000933;28;20034;-81
2022/04/21 11:13:48;;;;;;;4.78;2.55;;;;;;;16.36;41.08;99477.44;5001921;28;20076;-80
2022/04/21 11:16:47;;;;;;;15.83;3.37;;;;;;;16.57;41.75;99484.09;5001614;28;20030;-81
2022/04/21 11:19:36;;;;;;;8.88;3.83;;;;;;;16.53;40.98;99474.00;4999787;28;20046;-81
2022/04/21 11:22:04;;;;;;;6.38;3.42;;;;;;;16.16;42.44;99474.03;5018137;28;20483;-83
2022/04/21 11:24:54;;;;;;;10.25;3.80;;;;;;;16.24;43.03;99470.53;5021935;28;20079;-81
2022/04/21 11:27:21;;;;;;;9.48;3.35;;;;;;;16.42;41.85;99463.25;5021419;28;20265;-80
2022/04/21 11:29:46;;;;;;;10.07;3.78;;;;;;;16.22;43.12;99461.78;5021057;28;20539;-81
2022/04/21 11:32:16;;;;;;;15.43;5.63;;;;;;;15.98;43.16;99458.16;5012256;28;20038;-81
2022/04/21 11:34:42;;;;;;;6.95;3.92;;;;;;;16.02;42.67;99463.06;5001621;28;20586;-81
2022/04/21 11:37:07;;;;;;;7.05;3.63;;;;;;;15.92;43.18;99462.16;5001873;28;20069;-80
2022/04/21 11:39:38;;;;;;;8.67;4.73;;;;;;;16.05;41.92;99457.75;5001340;28;20030;-81
2022/04/21 11:42:04;;;;;;;7.30;3.75;;;;;;;16.38;42.63;99459.50;5019861;28;20041;-81
2022/04/21 11:44:29;;;;;;;7.53;3.88;;;;;;;16.73;41.93;99458.13;5024165;28;20053;-80
2022/04/21 11:46:54;;;;;;;8.05;3.92;;;;;;;16.71;42.13;99460.38;5024725;28;20037;-80
2022/04/21 11:49:20;;;;;;;7.93;4.18;;;;;;;16.41;42.33;99458.88;5025014;28;20048;-80
2022/04/21 11:51:52;;;;;;;7.47;3.95;;;;;;;15.88;44.10;99463.88;5024896;28;20029;-80
2022/04/21 11:54:17;;;;;;;9.10;3.83;;;;;;;15.72;44.74;99455.94;5025024;28;20381;-80
2022/04/21 11:56:49;;;;;;;13.88;5.10;;;;;;;15.50;44.49;99463.00;5024848;28;20036;-80
2022/04/21 11:59:14;;;;;;;8.20;4.03;;;;;;;15.37;44.84;99450.06;5025226;28;20248;-80
2022/04/21 12:07:15;;;;;;;10.53;4.70;;;;;;;15.08;47.54;99453.91;5004910;28;20013;-79
2022/04/21 12:09:41;;;;;;;8.88;5.22;;;;;;;15.30;46.52;99450.47;5005178;28;20575;-80
2022/04/21 12:12:08;;;;;;;8.98;4.45;;;;;;;15.14;47.26;99453.53;4986693;28;20061;-82
2022/04/21 12:14:34;;;;;;;9.10;4.07;;;;;;;15.40;46.38;99446.72;5004859;28;20033;-80
2022/04/21 12:17:01;;;;;;;10.23;4.80;;;;;;;14.96;47.47;99444.25;5004730;28;20461;-79
2022/04/21 12:19:37;;;;;;;6.97;3.63;;;;;;;15.54;46.46;99443.94;5004947;28;20030;-79
2022/04/21 12:22:07;;;;;;;6.80;3.42;;;;;;;15.98;46.65;99436.19;5002918;28;20037;-79
2022/04/21 12:24:39;;;;;;;6.43;3.15;;;;;;;16.14;44.22;99437.78;5024298;28;20366;-77
2022/04/21 12:27:11;;;;;;;10.73;4.45;;;;;;;15.98;44.78;99436.19;5024293;28;20406;-79
2022/04/21 12:29:51;;;;;;;8.95;4.28;;;;;;;16.35;44.71;99427.13;5024809;28;20079;-79
2022/04/21 12:32:21;;;;;;;9.27;4.07;;;;;;;16.12;45.68;99440.03;5014563;28;20536;-79
2022/04/21 12:34:47;;;;;;;6.30;3.55;;;;;;;16.78;43.29;99433.22;5004141;28;20497;-80
2022/04/21 12:37:12;;;;;;;7.80;4.70;;;;;;;17.53;42.71;99429.03;5004580;28;20029;-79
2022/04/21 12:39:37;;;;;;;7.18;3.45;;;;;;;17.45;41.57;99421.56;5004666;28;20037;-80
2022/04/21 12:42:04;;;;;;;8.98;4.40;;;;;;;17.27;43.38;99421.47;5020564;28;20389;-79
2022/04/21 12:44:30;;;;;;;7.00;3.70;;;;;;;17.30;41.82;99415.34;5023835;28;20030;-80
2022/04/21 12:46:57;;;;;;;8.33;4.60;;;;;;;17.07;43.56;99418.13;5024649;28;20037;-78